sensor_id;sensor_type;location;lat;lon;timestamp;temperature;humidity
78896;HTU21D;68284;59.124;37.910;2024-01-30T00:00:16;3.30;75.99
78896;HTU21D;68284;59.124;37.910;2024-01-30T00:02:43;3.31;76.01
78896;HTU21D;68284;59.124;37.910;2024-01-30T00:05:12;3.29;76.05
78896;HTU21D;68284;59.124;37.910;2024-01-30T00:07:38;3.29;76.07
78896;HTU21D;68284;59.124;37.910;2024-01-30T00:10:05;3.28;76.11
78896;HTU21D;68284;59.124;37.910;2024-01-30T00:12:32;3.28;76.14
78896;HTU21D;68284;59.124;37.910;2024-01-30T00:14:58;3.29;76.13
78896;HTU21D;68284;59.124;37.910;2024-01-30T00:17:25;3.29;76.17
78896;HTU21D;68284;59.124;37.910;2024-01-30T00:19:52;3.29;76.18
78896;HTU21D;68284;59.124;37.910;2024-01-30T00:22:18;3.29;76.24
78896;HTU21D;68284;59.124;37.910;2024-01-30T00:24:45;3.29;76.30
78896;HTU21D;68284;59.124;37.910;2024-01-30T00:27:11;3.30;76.33
78896;HTU21D;68284;59.124;37.910;2024-01-30T00:29:38;3.32;76.31
78896;HTU21D;68284;59.124;37.910;2024-01-30T00:32:05;3.32;76.30
78896;HTU21D;68284;59.124;37.910;2024-01-30T00:34:32;3.34;76.31
78896;HTU21D;68284;59.124;37.910;2024-01-30T00:36:58;3.34;76.31
78896;HTU21D;68284;59.124;37.910;2024-01-30T00:39:25;3.35;76.30
78896;HTU21D;68284;59.124;37.910;2024-01-30T00:41:51;3.35;76.29
78896;HTU21D;68284;59.124;37.910;2024-01-30T00:44:18;3.35;76.31
78896;HTU21D;68284;59.124;37.910;2024-01-30T00:46:44;3.34;76.34
78896;HTU21D;68284;59.124;37.910;2024-01-30T00:49:11;3.34;76.34
78896;HTU21D;68284;59.124;37.910;2024-01-30T00:51:37;3.33;76.37
78896;HTU21D;68284;59.124;37.910;2024-01-30T00:54:04;3.33;76.43
78896;HTU21D;68284;59.124;37.910;2024-01-30T00:56:32;3.32;76.44
78896;HTU21D;68284;59.124;37.910;2024-01-30T00:58:59;3.32;76.49
78896;HTU21D;68284;59.124;37.910;2024-01-30T01:01:26;3.32;76.47
78896;HTU21D;68284;59.124;37.910;2024-01-30T01:03:53;3.31;76.53
78896;HTU21D;68284;59.124;37.910;2024-01-30T01:06:19;3.31;76.55
78896;HTU21D;68284;59.124;37.910;2024-01-30T01:08:46;3.31;76.59
78896;HTU21D;68284;59.124;37.910;2024-01-30T01:11:12;3.31;76.63
78896;HTU21D;68284;59.124;37.910;2024-01-30T01:13:39;3.31;76.65
78896;HTU21D;68284;59.124;37.910;2024-01-30T01:16:06;3.33;76.67
78896;HTU21D;68284;59.124;37.910;2024-01-30T01:18:32;3.32;76.68
78896;HTU21D;68284;59.124;37.910;2024-01-30T01:20:59;3.31;76.70
78896;HTU21D;68284;59.124;37.910;2024-01-30T01:23:28;3.30;76.72
78896;HTU21D;68284;59.124;37.910;2024-01-30T01:25:55;3.28;76.80
78896;HTU21D;68284;59.124;37.910;2024-01-30T01:28:22;3.27;76.82
78896;HTU21D;68284;59.124;37.910;2024-01-30T01:30:48;3.28;76.86
78896;HTU21D;68284;59.124;37.910;2024-01-30T01:33:15;3.27;76.89
78896;HTU21D;68284;59.124;37.910;2024-01-30T01:35:42;3.26;76.92
78896;HTU21D;68284;59.124;37.910;2024-01-30T01:38:11;3.26;76.97
78896;HTU21D;68284;59.124;37.910;2024-01-30T01:40:37;3.26;77.06
78896;HTU21D;68284;59.124;37.910;2024-01-30T01:43:06;3.26;77.08
78896;HTU21D;68284;59.124;37.910;2024-01-30T01:45:32;3.26;77.07
78896;HTU21D;68284;59.124;37.910;2024-01-30T01:47:59;3.26;77.11
78896;HTU21D;68284;59.124;37.910;2024-01-30T01:50:25;3.26;77.08
78896;HTU21D;68284;59.124;37.910;2024-01-30T01:52:52;3.27;77.12
78896;HTU21D;68284;59.124;37.910;2024-01-30T01:55:21;3.26;77.04
78896;HTU21D;68284;59.124;37.910;2024-01-30T01:57:49;3.26;77.05
78896;HTU21D;68284;59.124;37.910;2024-01-30T02:00:16;3.25;77.15
78896;HTU21D;68284;59.124;37.910;2024-01-30T02:02:46;3.24;77.21
78896;HTU21D;68284;59.124;37.910;2024-01-30T02:05:14;3.24;77.26
78896;HTU21D;68284;59.124;37.910;2024-01-30T02:07:40;3.25;77.31
78896;HTU21D;68284;59.124;37.910;2024-01-30T02:10:13;3.25;77.36
78896;HTU21D;68284;59.124;37.910;2024-01-30T02:12:40;3.26;77.39
78896;HTU21D;68284;59.124;37.910;2024-01-30T02:15:06;3.25;77.41
78896;HTU21D;68284;59.124;37.910;2024-01-30T02:17:34;3.25;77.49
78896;HTU21D;68284;59.124;37.910;2024-01-30T02:20:01;3.23;77.49
78896;HTU21D;68284;59.124;37.910;2024-01-30T02:22:28;3.24;77.54
78896;HTU21D;68284;59.124;37.910;2024-01-30T02:24:54;3.24;77.63
78896;HTU21D;68284;59.124;37.910;2024-01-30T02:27:21;3.23;77.53
78896;HTU21D;68284;59.124;37.910;2024-01-30T02:29:48;3.23;77.57
78896;HTU21D;68284;59.124;37.910;2024-01-30T02:32:15;3.23;77.61
78896;HTU21D;68284;59.124;37.910;2024-01-30T02:34:43;3.21;77.63
78896;HTU21D;68284;59.124;37.910;2024-01-30T02:37:10;3.20;77.71
78896;HTU21D;68284;59.124;37.910;2024-01-30T02:39:36;3.17;77.81
78896;HTU21D;68284;59.124;37.910;2024-01-30T02:42:03;3.18;77.83
78896;HTU21D;68284;59.124;37.910;2024-01-30T02:44:30;3.16;77.94
78896;HTU21D;68284;59.124;37.910;2024-01-30T02:46:57;3.16;77.95
78896;HTU21D;68284;59.124;37.910;2024-01-30T02:49:23;3.15;77.99
78896;HTU21D;68284;59.124;37.910;2024-01-30T02:51:52;3.15;78.09
78896;HTU21D;68284;59.124;37.910;2024-01-30T02:54:18;3.16;78.20
78896;HTU21D;68284;59.124;37.910;2024-01-30T02:56:45;3.18;78.21
78896;HTU21D;68284;59.124;37.910;2024-01-30T02:59:12;3.19;78.24
78896;HTU21D;68284;59.124;37.910;2024-01-30T03:01:43;3.23;78.29
78896;HTU21D;68284;59.124;37.910;2024-01-30T03:04:10;3.28;78.26
78896;HTU21D;68284;59.124;37.910;2024-01-30T03:06:37;3.29;78.24
78896;HTU21D;68284;59.124;37.910;2024-01-30T03:09:04;3.33;78.18
78896;HTU21D;68284;59.124;37.910;2024-01-30T03:11:31;3.35;78.14
78896;HTU21D;68284;59.124;37.910;2024-01-30T03:13:58;3.36;78.11
78896;HTU21D;68284;59.124;37.910;2024-01-30T03:16:25;3.39;78.08
78896;HTU21D;68284;59.124;37.910;2024-01-30T03:18:53;3.40;78.07
78896;HTU21D;68284;59.124;37.910;2024-01-30T03:21:19;3.41;78.07
78896;HTU21D;68284;59.124;37.910;2024-01-30T03:23:46;3.41;78.15
78896;HTU21D;68284;59.124;37.910;2024-01-30T03:26:12;3.44;78.19
78896;HTU21D;68284;59.124;37.910;2024-01-30T03:28:39;3.45;78.24
78896;HTU21D;68284;59.124;37.910;2024-01-30T03:31:07;3.46;78.18
78896;HTU21D;68284;59.124;37.910;2024-01-30T03:33:33;3.46;78.15
78896;HTU21D;68284;59.124;37.910;2024-01-30T03:36:04;3.46;78.16
78896;HTU21D;68284;59.124;37.910;2024-01-30T03:38:30;3.47;78.26
78896;HTU21D;68284;59.124;37.910;2024-01-30T03:40:59;3.46;78.30
78896;HTU21D;68284;59.124;37.910;2024-01-30T03:43:26;3.46;78.31
78896;HTU21D;68284;59.124;37.910;2024-01-30T03:45:53;3.44;78.34
78896;HTU21D;68284;59.124;37.910;2024-01-30T03:48:21;3.42;78.27
78896;HTU21D;68284;59.124;37.910;2024-01-30T03:50:48;3.42;78.30
78896;HTU21D;68284;59.124;37.910;2024-01-30T03:53:15;3.40;78.30
78896;HTU21D;68284;59.124;37.910;2024-01-30T03:55:44;3.39;78.43
78896;HTU21D;68284;59.124;37.910;2024-01-30T03:58:12;3.40;78.52
78896;HTU21D;68284;59.124;37.910;2024-01-30T04:00:39;3.40;78.58
78896;HTU21D;68284;59.124;37.910;2024-01-30T04:03:07;3.40;78.64
78896;HTU21D;68284;59.124;37.910;2024-01-30T04:05:33;3.42;78.68
78896;HTU21D;68284;59.124;37.910;2024-01-30T04:08:00;3.42;78.64
78896;HTU21D;68284;59.124;37.910;2024-01-30T04:10:27;3.41;78.63
78896;HTU21D;68284;59.124;37.910;2024-01-30T04:12:54;3.41;78.66
78896;HTU21D;68284;59.124;37.910;2024-01-30T04:15:20;3.39;78.76
78896;HTU21D;68284;59.124;37.910;2024-01-30T04:17:47;3.42;78.85
78896;HTU21D;68284;59.124;37.910;2024-01-30T04:20:14;3.41;78.79
78896;HTU21D;68284;59.124;37.910;2024-01-30T04:22:45;3.42;78.82
78896;HTU21D;68284;59.124;37.910;2024-01-30T04:25:13;3.43;78.78
78896;HTU21D;68284;59.124;37.910;2024-01-30T04:27:40;3.43;78.75
78896;HTU21D;68284;59.124;37.910;2024-01-30T04:30:07;3.42;78.72
78896;HTU21D;68284;59.124;37.910;2024-01-30T04:32:34;3.40;78.78
78896;HTU21D;68284;59.124;37.910;2024-01-30T04:35:01;3.39;78.72
78896;HTU21D;68284;59.124;37.910;2024-01-30T04:37:27;3.39;78.68
78896;HTU21D;68284;59.124;37.910;2024-01-30T04:39:55;3.36;78.66
78896;HTU21D;68284;59.124;37.910;2024-01-30T04:42:21;3.34;78.70
78896;HTU21D;68284;59.124;37.910;2024-01-30T04:44:48;3.36;78.77
78896;HTU21D;68284;59.124;37.910;2024-01-30T04:47:14;3.36;78.70
78896;HTU21D;68284;59.124;37.910;2024-01-30T04:49:41;3.33;78.41
78896;HTU21D;68284;59.124;37.910;2024-01-30T04:52:08;3.32;78.24
78896;HTU21D;68284;59.124;37.910;2024-01-30T04:54:35;3.28;78.22
78896;HTU21D;68284;59.124;37.910;2024-01-30T04:57:02;3.26;78.36
78896;HTU21D;68284;59.124;37.910;2024-01-30T04:59:29;3.27;78.34
78896;HTU21D;68284;59.124;37.910;2024-01-30T05:01:55;3.27;78.34
78896;HTU21D;68284;59.124;37.910;2024-01-30T05:04:22;3.28;78.37
78896;HTU21D;68284;59.124;37.910;2024-01-30T05:06:49;3.31;78.30
78896;HTU21D;68284;59.124;37.910;2024-01-30T05:09:15;3.30;78.24
78896;HTU21D;68284;59.124;37.910;2024-01-30T05:11:43;3.32;78.25
78896;HTU21D;68284;59.124;37.910;2024-01-30T05:14:09;3.33;78.27
78896;HTU21D;68284;59.124;37.910;2024-01-30T05:16:38;3.34;78.19
78896;HTU21D;68284;59.124;37.910;2024-01-30T05:19:06;3.36;78.20
78896;HTU21D;68284;59.124;37.910;2024-01-30T05:21:35;3.38;78.15
78896;HTU21D;68284;59.124;37.910;2024-01-30T05:24:03;3.38;78.08
78896;HTU21D;68284;59.124;37.910;2024-01-30T05:26:31;3.40;78.08
78896;HTU21D;68284;59.124;37.910;2024-01-30T05:29:24;3.41;78.05
78896;HTU21D;68284;59.124;37.910;2024-01-30T05:31:56;3.42;78.07
78896;HTU21D;68284;59.124;37.910;2024-01-30T05:34:23;3.43;78.09
78896;HTU21D;68284;59.124;37.910;2024-01-30T05:36:51;3.47;78.12
78896;HTU21D;68284;59.124;37.910;2024-01-30T05:39:18;3.50;78.28
78896;HTU21D;68284;59.124;37.910;2024-01-30T05:41:51;3.54;78.08
78896;HTU21D;68284;59.124;37.910;2024-01-30T05:44:19;3.53;77.90
78896;HTU21D;68284;59.124;37.910;2024-01-30T05:46:48;3.50;77.72
78896;HTU21D;68284;59.124;37.910;2024-01-30T05:49:15;3.46;77.68
78896;HTU21D;68284;59.124;37.910;2024-01-30T05:51:41;3.41;77.63
78896;HTU21D;68284;59.124;37.910;2024-01-30T05:54:08;3.34;77.56
78896;HTU21D;68284;59.124;37.910;2024-01-30T05:56:34;3.31;77.66
78896;HTU21D;68284;59.124;37.910;2024-01-30T05:59:01;3.27;77.68
78896;HTU21D;68284;59.124;37.910;2024-01-30T06:01:27;3.24;77.70
78896;HTU21D;68284;59.124;37.910;2024-01-30T06:03:55;3.21;77.76
78896;HTU21D;68284;59.124;37.910;2024-01-30T06:06:22;3.18;77.71
78896;HTU21D;68284;59.124;37.910;2024-01-30T06:08:48;3.17;77.72
78896;HTU21D;68284;59.124;37.910;2024-01-30T06:11:14;3.15;77.72
78896;HTU21D;68284;59.124;37.910;2024-01-30T06:13:41;3.12;77.75
78896;HTU21D;68284;59.124;37.910;2024-01-30T06:16:11;3.12;77.72
78896;HTU21D;68284;59.124;37.910;2024-01-30T06:18:40;3.12;77.72
78896;HTU21D;68284;59.124;37.910;2024-01-30T06:21:07;3.11;77.78
78896;HTU21D;68284;59.124;37.910;2024-01-30T06:23:33;3.10;77.71
78896;HTU21D;68284;59.124;37.910;2024-01-30T06:26:00;3.10;77.63
78896;HTU21D;68284;59.124;37.910;2024-01-30T06:28:26;3.10;77.56
78896;HTU21D;68284;59.124;37.910;2024-01-30T06:30:53;3.10;77.60
78896;HTU21D;68284;59.124;37.910;2024-01-30T06:33:19;3.12;77.61
78896;HTU21D;68284;59.124;37.910;2024-01-30T06:35:46;3.13;77.56
78896;HTU21D;68284;59.124;37.910;2024-01-30T06:38:12;3.13;77.45
78896;HTU21D;68284;59.124;37.910;2024-01-30T06:40:39;3.14;77.47
78896;HTU21D;68284;59.124;37.910;2024-01-30T06:43:06;3.15;77.47
78896;HTU21D;68284;59.124;37.910;2024-01-30T06:45:34;3.18;77.43
78896;HTU21D;68284;59.124;37.910;2024-01-30T06:48:00;3.19;77.35
78896;HTU21D;68284;59.124;37.910;2024-01-30T06:50:27;3.21;77.31
78896;HTU21D;68284;59.124;37.910;2024-01-30T06:52:54;3.23;77.37
78896;HTU21D;68284;59.124;37.910;2024-01-30T06:55:20;3.25;77.32
78896;HTU21D;68284;59.124;37.910;2024-01-30T06:57:47;3.26;77.27
78896;HTU21D;68284;59.124;37.910;2024-01-30T07:00:14;3.29;77.21
78896;HTU21D;68284;59.124;37.910;2024-01-30T07:02:42;3.28;77.23
78896;HTU21D;68284;59.124;37.910;2024-01-30T07:05:09;3.29;77.27
78896;HTU21D;68284;59.124;37.910;2024-01-30T07:07:36;3.32;77.19
78896;HTU21D;68284;59.124;37.910;2024-01-30T07:10:02;3.32;77.25
78896;HTU21D;68284;59.124;37.910;2024-01-30T07:12:30;3.33;77.25
78896;HTU21D;68284;59.124;37.910;2024-01-30T07:14:57;3.33;77.30
78896;HTU21D;68284;59.124;37.910;2024-01-30T07:17:25;3.33;77.33
78896;HTU21D;68284;59.124;37.910;2024-01-30T07:19:52;3.34;77.36
78896;HTU21D;68284;59.124;37.910;2024-01-30T07:22:18;3.35;77.21
78896;HTU21D;68284;59.124;37.910;2024-01-30T07:24:45;3.35;77.15
78896;HTU21D;68284;59.124;37.910;2024-01-30T07:27:14;3.31;77.15
78896;HTU21D;68284;59.124;37.910;2024-01-30T07:29:41;3.28;77.21
78896;HTU21D;68284;59.124;37.910;2024-01-30T07:32:07;3.20;77.19
78896;HTU21D;68284;59.124;37.910;2024-01-30T07:34:34;3.14;77.34
78896;HTU21D;68284;59.124;37.910;2024-01-30T07:37:00;3.08;77.51
78896;HTU21D;68284;59.124;37.910;2024-01-30T07:39:27;3.05;77.61
78896;HTU21D;68284;59.124;37.910;2024-01-30T07:41:54;3.00;77.64
78896;HTU21D;68284;59.124;37.910;2024-01-30T07:44:22;2.96;77.74
78896;HTU21D;68284;59.124;37.910;2024-01-30T07:46:51;2.94;77.85
78896;HTU21D;68284;59.124;37.910;2024-01-30T07:49:20;2.93;77.85
78896;HTU21D;68284;59.124;37.910;2024-01-30T07:51:46;2.89;77.89
78896;HTU21D;68284;59.124;37.910;2024-01-30T07:54:13;2.89;77.96
78896;HTU21D;68284;59.124;37.910;2024-01-30T07:56:39;2.87;77.97
78896;HTU21D;68284;59.124;37.910;2024-01-30T07:59:09;2.86;77.94
78896;HTU21D;68284;59.124;37.910;2024-01-30T08:01:36;2.84;77.95
78896;HTU21D;68284;59.124;37.910;2024-01-30T08:04:03;2.80;77.95
78896;HTU21D;68284;59.124;37.910;2024-01-30T08:06:31;2.75;78.01
78896;HTU21D;68284;59.124;37.910;2024-01-30T08:08:59;2.71;78.11
78896;HTU21D;68284;59.124;37.910;2024-01-30T08:11:25;2.68;78.18
78896;HTU21D;68284;59.124;37.910;2024-01-30T08:13:53;2.65;78.27
78896;HTU21D;68284;59.124;37.910;2024-01-30T08:16:19;2.60;78.27
78896;HTU21D;68284;59.124;37.910;2024-01-30T08:18:46;2.56;78.41
78896;HTU21D;68284;59.124;37.910;2024-01-30T08:21:12;2.54;78.45
78896;HTU21D;68284;59.124;37.910;2024-01-30T08:23:39;2.50;78.46
78896;HTU21D;68284;59.124;37.910;2024-01-30T08:26:11;2.45;78.58
78896;HTU21D;68284;59.124;37.910;2024-01-30T08:28:42;2.43;78.63
78896;HTU21D;68284;59.124;37.910;2024-01-30T08:31:14;2.40;78.72
78896;HTU21D;68284;59.124;37.910;2024-01-30T08:33:45;2.37;78.81
78896;HTU21D;68284;59.124;37.910;2024-01-30T08:36:17;2.35;78.92
78896;HTU21D;68284;59.124;37.910;2024-01-30T08:38:48;2.31;78.91
78896;HTU21D;68284;59.124;37.910;2024-01-30T08:41:20;2.32;79.01
78896;HTU21D;68284;59.124;37.910;2024-01-30T08:43:52;2.31;79.02
78896;HTU21D;68284;59.124;37.910;2024-01-30T08:46:23;2.30;79.10
78896;HTU21D;68284;59.124;37.910;2024-01-30T08:48:55;2.31;79.17
78896;HTU21D;68284;59.124;37.910;2024-01-30T08:51:21;2.32;79.15
78896;HTU21D;68284;59.124;37.910;2024-01-30T08:53:48;2.35;79.20
78896;HTU21D;68284;59.124;37.910;2024-01-30T08:56:14;2.34;79.19
78896;HTU21D;68284;59.124;37.910;2024-01-30T08:58:42;2.34;79.19
78896;HTU21D;68284;59.124;37.910;2024-01-30T09:01:09;2.35;79.20
78896;HTU21D;68284;59.124;37.910;2024-01-30T09:03:35;2.36;79.21
78896;HTU21D;68284;59.124;37.910;2024-01-30T09:06:04;2.36;79.14
78896;HTU21D;68284;59.124;37.910;2024-01-30T09:08:30;2.37;79.13
78896;HTU21D;68284;59.124;37.910;2024-01-30T09:10:57;2.40;79.14
78896;HTU21D;68284;59.124;37.910;2024-01-30T09:13:23;2.43;79.11
78896;HTU21D;68284;59.124;37.910;2024-01-30T09:15:50;2.46;79.08
78896;HTU21D;68284;59.124;37.910;2024-01-30T09:18:16;2.52;78.97
78896;HTU21D;68284;59.124;37.910;2024-01-30T09:20:43;2.54;78.92
78896;HTU21D;68284;59.124;37.910;2024-01-30T09:23:11;2.56;78.84
78896;HTU21D;68284;59.124;37.910;2024-01-30T09:25:38;2.58;78.71
78896;HTU21D;68284;59.124;37.910;2024-01-30T09:28:05;2.57;78.75
78896;HTU21D;68284;59.124;37.910;2024-01-30T09:30:33;2.61;78.82
78896;HTU21D;68284;59.124;37.910;2024-01-30T09:33:01;2.69;78.79
78896;HTU21D;68284;59.124;37.910;2024-01-30T09:35:28;2.75;78.58
78896;HTU21D;68284;59.124;37.910;2024-01-30T09:37:56;2.78;78.43
78896;HTU21D;68284;59.124;37.910;2024-01-30T09:40:24;2.79;78.31
78896;HTU21D;68284;59.124;37.910;2024-01-30T09:42:51;2.76;78.30
78896;HTU21D;68284;59.124;37.910;2024-01-30T09:45:18;2.78;78.24
78896;HTU21D;68284;59.124;37.910;2024-01-30T09:47:48;2.76;78.21
78896;HTU21D;68284;59.124;37.910;2024-01-30T09:50:15;2.78;78.30
78896;HTU21D;68284;59.124;37.910;2024-01-30T09:52:46;2.82;78.25
78896;HTU21D;68284;59.124;37.910;2024-01-30T09:55:13;2.85;78.05
78896;HTU21D;68284;59.124;37.910;2024-01-30T09:57:41;2.88;78.05
78896;HTU21D;68284;59.124;37.910;2024-01-30T10:00:08;2.91;78.00
78896;HTU21D;68284;59.124;37.910;2024-01-30T10:02:41;2.94;77.89
78896;HTU21D;68284;59.124;37.910;2024-01-30T10:05:08;2.98;77.93
78896;HTU21D;68284;59.124;37.910;2024-01-30T10:07:35;3.04;77.81
78896;HTU21D;68284;59.124;37.910;2024-01-30T10:10:01;3.10;77.72
78896;HTU21D;68284;59.124;37.910;2024-01-30T10:12:29;3.12;77.49
78896;HTU21D;68284;59.124;37.910;2024-01-30T10:14:56;3.13;77.36
78896;HTU21D;68284;59.124;37.910;2024-01-30T10:17:25;3.13;77.32
78896;HTU21D;68284;59.124;37.910;2024-01-30T10:19:53;3.14;77.32
78896;HTU21D;68284;59.124;37.910;2024-01-30T10:22:20;3.14;77.17
78896;HTU21D;68284;59.124;37.910;2024-01-30T10:24:48;3.10;77.06
78896;HTU21D;68284;59.124;37.910;2024-01-30T10:27:14;3.06;77.17
78896;HTU21D;68284;59.124;37.910;2024-01-30T10:29:40;3.03;77.16
78896;HTU21D;68284;59.124;37.910;2024-01-30T10:32:07;3.01;77.22
78896;HTU21D;68284;59.124;37.910;2024-01-30T10:34:34;2.99;77.29
78896;HTU21D;68284;59.124;37.910;2024-01-30T10:37:10;3.01;77.29
78896;HTU21D;68284;59.124;37.910;2024-01-30T10:39:44;3.04;77.24
78896;HTU21D;68284;59.124;37.910;2024-01-30T10:42:15;3.09;77.01
78896;HTU21D;68284;59.124;37.910;2024-01-30T10:47:29;3.16;76.77
78896;HTU21D;68284;59.124;37.910;2024-01-30T10:49:57;3.23;76.66
78896;HTU21D;68284;59.124;37.910;2024-01-30T10:52:25;3.26;76.44
78896;HTU21D;68284;59.124;37.910;2024-01-30T10:54:54;3.29;76.30
78896;HTU21D;68284;59.124;37.910;2024-01-30T10:57:25;3.34;76.13
78896;HTU21D;68284;59.124;37.910;2024-01-30T11:00:01;3.40;75.98
78896;HTU21D;68284;59.124;37.910;2024-01-30T11:02:32;3.52;75.87
78896;HTU21D;68284;59.124;37.910;2024-01-30T11:05:00;3.70;75.73
78896;HTU21D;68284;59.124;37.910;2024-01-30T11:07:29;3.89;75.47
78896;HTU21D;68284;59.124;37.910;2024-01-30T11:12:37;4.32;75.31
78896;HTU21D;68284;59.124;37.910;2024-01-30T11:15:06;4.58;74.82
78896;HTU21D;68284;59.124;37.910;2024-01-30T11:17:51;4.88;74.39
78896;HTU21D;68284;59.124;37.910;2024-01-30T11:20:27;5.09;73.64
78896;HTU21D;68284;59.124;37.910;2024-01-30T11:22:57;5.25;73.32
78896;HTU21D;68284;59.124;37.910;2024-01-30T11:25:25;5.42;73.02
78896;HTU21D;68284;59.124;37.910;2024-01-30T11:27:53;5.60;72.72
78896;HTU21D;68284;59.124;37.910;2024-01-30T11:30:28;5.80;72.24
78896;HTU21D;68284;59.124;37.910;2024-01-30T11:35:36;6.13;71.24
78896;HTU21D;68284;59.124;37.910;2024-01-30T11:38:03;6.25;71.03
78896;HTU21D;68284;59.124;37.910;2024-01-30T11:40:31;6.34;70.39
78896;HTU21D;68284;59.124;37.910;2024-01-30T11:42:59;6.44;70.10
78896;HTU21D;68284;59.124;37.910;2024-01-30T11:45:27;6.60;69.28
78896;HTU21D;68284;59.124;37.910;2024-01-30T11:47:54;6.67;68.95
78896;HTU21D;68284;59.124;37.910;2024-01-30T11:50:21;6.71;68.82
78896;HTU21D;68284;59.124;37.910;2024-01-30T11:52:49;6.80;68.63
78896;HTU21D;68284;59.124;37.910;2024-01-30T11:55:15;6.87;68.08
78896;HTU21D;68284;59.124;37.910;2024-01-30T11:57:41;6.91;67.63
78896;HTU21D;68284;59.124;37.910;2024-01-30T12:00:18;6.96;67.16
78896;HTU21D;68284;59.124;37.910;2024-01-30T12:02:49;7.05;66.88
78896;HTU21D;68284;59.124;37.910;2024-01-30T12:05:16;7.16;66.73
78896;HTU21D;68284;59.124;37.910;2024-01-30T12:07:45;7.27;66.69
78896;HTU21D;68284;59.124;37.910;2024-01-30T12:10:15;7.41;66.39
78896;HTU21D;68284;59.124;37.910;2024-01-30T12:12:45;7.52;65.89
78896;HTU21D;68284;59.124;37.910;2024-01-30T12:15:12;7.62;65.43
78896;HTU21D;68284;59.124;37.910;2024-01-30T12:17:39;7.79;65.17
78896;HTU21D;68284;59.124;37.910;2024-01-30T12:20:10;7.92;64.77
78896;HTU21D;68284;59.124;37.910;2024-01-30T12:22:41;8.13;64.60
78896;HTU21D;68284;59.124;37.910;2024-01-30T12:25:16;8.34;64.27
78896;HTU21D;68284;59.124;37.910;2024-01-30T12:27:44;8.44;63.83
78896;HTU21D;68284;59.124;37.910;2024-01-30T12:30:14;8.42;63.37
78896;HTU21D;68284;59.124;37.910;2024-01-30T12:32:44;8.31;63.31
78896;HTU21D;68284;59.124;37.910;2024-01-30T12:35:11;8.20;63.19
78896;HTU21D;68284;59.124;37.910;2024-01-30T12:37:39;8.01;63.26
78896;HTU21D;68284;59.124;37.910;2024-01-30T12:40:06;7.71;63.31
78896;HTU21D;68284;59.124;37.910;2024-01-30T12:42:33;7.34;63.56
78896;HTU21D;68284;59.124;37.910;2024-01-30T12:45:00;6.99;63.88
78896;HTU21D;68284;59.124;37.910;2024-01-30T12:47:26;6.64;64.17
78896;HTU21D;68284;59.124;37.910;2024-01-30T12:49:53;6.37;64.49
78896;HTU21D;68284;59.124;37.910;2024-01-30T12:52:20;6.14;64.66
78896;HTU21D;68284;59.124;37.910;2024-01-30T12:54:48;5.91;64.72
78896;HTU21D;68284;59.124;37.910;2024-01-30T12:57:14;5.69;65.08
78896;HTU21D;68284;59.124;37.910;2024-01-30T12:59:41;5.46;65.27
78896;HTU21D;68284;59.124;37.910;2024-01-30T13:02:07;5.17;65.44
78896;HTU21D;68284;59.124;37.910;2024-01-30T13:04:34;4.87;65.87
78896;HTU21D;68284;59.124;37.910;2024-01-30T13:07:01;4.51;66.37
78896;HTU21D;68284;59.124;37.910;2024-01-30T13:09:27;4.18;66.83
78896;HTU21D;68284;59.124;37.910;2024-01-30T13:11:53;3.83;67.54
78896;HTU21D;68284;59.124;37.910;2024-01-30T13:14:20;3.49;68.10
78896;HTU21D;68284;59.124;37.910;2024-01-30T13:16:46;3.21;68.78
78896;HTU21D;68284;59.124;37.910;2024-01-30T13:19:13;2.96;69.32
78896;HTU21D;68284;59.124;37.910;2024-01-30T13:21:40;2.73;69.81
78896;HTU21D;68284;59.124;37.910;2024-01-30T13:24:06;2.52;70.27
78896;HTU21D;68284;59.124;37.910;2024-01-30T13:26:33;2.35;70.78
78896;HTU21D;68284;59.124;37.910;2024-01-30T13:28:59;2.21;71.26
78896;HTU21D;68284;59.124;37.910;2024-01-30T13:31:26;2.08;71.51
78896;HTU21D;68284;59.124;37.910;2024-01-30T13:33:54;1.95;71.91
78896;HTU21D;68284;59.124;37.910;2024-01-30T13:36:21;1.85;72.30
78896;HTU21D;68284;59.124;37.910;2024-01-30T13:38:47;1.76;72.66
78896;HTU21D;68284;59.124;37.910;2024-01-30T13:41:14;1.68;73.04
78896;HTU21D;68284;59.124;37.910;2024-01-30T13:43:41;1.60;73.48
78896;HTU21D;68284;59.124;37.910;2024-01-30T13:46:07;1.52;73.78
78896;HTU21D;68284;59.124;37.910;2024-01-30T13:48:33;1.46;73.86
78896;HTU21D;68284;59.124;37.910;2024-01-30T13:51:01;1.39;74.18
78896;HTU21D;68284;59.124;37.910;2024-01-30T13:53:27;1.35;74.51
78896;HTU21D;68284;59.124;37.910;2024-01-30T13:55:54;1.28;74.73
78896;HTU21D;68284;59.124;37.910;2024-01-30T13:58:21;1.23;74.73
78896;HTU21D;68284;59.124;37.910;2024-01-30T14:00:47;1.19;74.94
78896;HTU21D;68284;59.124;37.910;2024-01-30T14:03:15;1.17;75.31
78896;HTU21D;68284;59.124;37.910;2024-01-30T14:05:41;1.13;75.30
78896;HTU21D;68284;59.124;37.910;2024-01-30T14:08:07;1.10;75.57
78896;HTU21D;68284;59.124;37.910;2024-01-30T14:10:34;1.09;75.69
78896;HTU21D;68284;59.124;37.910;2024-01-30T14:13:01;1.06;75.58
78896;HTU21D;68284;59.124;37.910;2024-01-30T14:15:27;1.06;75.62
78896;HTU21D;68284;59.124;37.910;2024-01-30T14:17:54;1.04;75.76
78896;HTU21D;68284;59.124;37.910;2024-01-30T14:20:20;1.04;75.89
78896;HTU21D;68284;59.124;37.910;2024-01-30T14:22:46;1.02;75.99
78896;HTU21D;68284;59.124;37.910;2024-01-30T14:25:13;1.03;76.35
78896;HTU21D;68284;59.124;37.910;2024-01-30T14:27:39;1.03;76.41
78896;HTU21D;68284;59.124;37.910;2024-01-30T14:30:06;1.03;76.53
78896;HTU21D;68284;59.124;37.910;2024-01-30T14:32:35;1.04;76.66
78896;HTU21D;68284;59.124;37.910;2024-01-30T14:35:02;1.05;76.92
78896;HTU21D;68284;59.124;37.910;2024-01-30T14:37:28;1.09;77.09
78896;HTU21D;68284;59.124;37.910;2024-01-30T14:39:56;1.10;76.92
78896;HTU21D;68284;59.124;37.910;2024-01-30T14:42:22;1.11;76.98
78896;HTU21D;68284;59.124;37.910;2024-01-30T14:44:48;1.11;77.19
78896;HTU21D;68284;59.124;37.910;2024-01-30T14:47:15;1.13;77.16
78896;HTU21D;68284;59.124;37.910;2024-01-30T14:49:42;1.13;77.22
78896;HTU21D;68284;59.124;37.910;2024-01-30T14:52:08;1.14;77.74
78896;HTU21D;68284;59.124;37.910;2024-01-30T14:54:36;1.14;77.54
78896;HTU21D;68284;59.124;37.910;2024-01-30T14:57:03;1.16;77.54
78896;HTU21D;68284;59.124;37.910;2024-01-30T14:59:30;1.14;77.61
78896;HTU21D;68284;59.124;37.910;2024-01-30T15:01:58;1.14;77.83
78896;HTU21D;68284;59.124;37.910;2024-01-30T15:04:25;1.13;77.87
78896;HTU21D;68284;59.124;37.910;2024-01-30T15:06:53;1.12;77.76
78896;HTU21D;68284;59.124;37.910;2024-01-30T15:09:20;1.13;77.82
78896;HTU21D;68284;59.124;37.910;2024-01-30T15:11:48;1.12;77.91
78896;HTU21D;68284;59.124;37.910;2024-01-30T15:14:15;1.13;78.07
78896;HTU21D;68284;59.124;37.910;2024-01-30T15:16:41;1.14;78.11
78896;HTU21D;68284;59.124;37.910;2024-01-30T15:19:08;1.14;78.13
78896;HTU21D;68284;59.124;37.910;2024-01-30T15:21:34;1.14;78.12
78896;HTU21D;68284;59.124;37.910;2024-01-30T15:24:02;1.14;78.21